sensor_id;sensor_type;location;lat;lon;timestamp;pressure;altitude;pressure_sealevel;temperature;humidity
65190;BME280;51777;53.570;9.984;2022-09-01T00:02:13;102220.06;;;15.85;72.19
65190;BME280;51777;53.570;9.984;2022-09-01T00:04:44;102212.53;;;15.82;72.27
65190;BME280;51777;53.570;9.984;2022-09-01T00:07:12;102212.53;;;15.82;72.53
65190;BME280;51777;53.570;9.984;2022-09-01T00:09:38;102212.03;;;15.79;72.50
65190;BME280;51777;53.570;9.984;2022-09-01T00:12:06;102214.09;;;15.75;73.97
65190;BME280;51777;53.570;9.984;2022-09-01T00:14:34;102210.41;;;15.68;74.56
65190;BME280;51777;53.570;9.984;2022-09-01T00:17:09;102206.47;;;15.64;74.66
65190;BME280;51777;53.570;9.984;2022-09-01T00:19:35;102211.53;;;15.66;74.58
65190;BME280;51777;53.570;9.984;2022-09-01T00:22:02;102209.75;;;15.66;74.41
65190;BME280;51777;53.570;9.984;2022-09-01T00:24:28;102203.25;;;15.70;73.81
65190;BME280;51777;53.570;9.984;2022-09-01T00:26:54;102210.41;;;15.68;73.64
65190;BME280;51777;53.570;9.984;2022-09-01T00:29:20;102212.75;;;15.62;73.84
65190;BME280;51777;53.570;9.984;2022-09-01T00:31:46;102216.88;;;15.54;74.01
65190;BME280;51777;53.570;9.984;2022-09-01T00:34:12;102207.56;;;15.52;74.14
65190;BME280;51777;53.570;9.984;2022-09-01T00:36:38;102204.81;;;15.44;75.15
65190;BME280;51777;53.570;9.984;2022-09-01T00:39:04;102196.03;;;15.45;75.47
65190;BME280;51777;53.570;9.984;2022-09-01T00:41:34;102199.63;;;15.44;75.74
65190;BME280;51777;53.570;9.984;2022-09-01T00:44:07;102199.09;;;15.40;76.44
65190;BME280;51777;53.570;9.984;2022-09-01T00:46:39;102201.25;;;15.45;76.21
65190;BME280;51777;53.570;9.984;2022-09-01T00:49:13;102203.84;;;15.45;76.24
65190;BME280;51777;53.570;9.984;2022-09-01T00:51:43;102196.88;;;15.45;76.20
65190;BME280;51777;53.570;9.984;2022-09-01T00:54:12;102201.41;;;15.43;76.54
65190;BME280;51777;53.570;9.984;2022-09-01T00:56:39;102199.63;;;15.44;76.38
65190;BME280;51777;53.570;9.984;2022-09-01T00:59:06;102196.72;;;15.47;76.21
65190;BME280;51777;53.570;9.984;2022-09-01T01:01:33;102189.03;;;15.45;76.43
65190;BME280;51777;53.570;9.984;2022-09-01T01:04:05;102189.72;;;15.47;76.30
65190;BME280;51777;53.570;9.984;2022-09-01T01:06:40;102194.41;;;15.44;76.60
65190;BME280;51777;53.570;9.984;2022-09-01T01:09:06;102190.16;;;15.43;76.85
65190;BME280;51777;53.570;9.984;2022-09-01T01:11:31;102196.47;;;15.40;76.71
65190;BME280;51777;53.570;9.984;2022-09-01T01:14:03;102188.91;;;15.37;77.13
65190;BME280;51777;53.570;9.984;2022-09-01T01:16:38;102189.88;;;15.36;77.42
65190;BME280;51777;53.570;9.984;2022-09-01T01:19:39;102191.53;;;15.37;77.05
65190;BME280;51777;53.570;9.984;2022-09-01T01:23:03;102193.19;;;15.38;76.95
65190;BME280;51777;53.570;9.984;2022-09-01T01:28:12;102198.81;;;15.34;77.75
65190;BME280;51777;53.570;9.984;2022-09-01T01:30:42;102196.78;;;15.27;77.93
65190;BME280;51777;53.570;9.984;2022-09-01T01:33:08;102184.81;;;15.25;77.90
65190;BME280;51777;53.570;9.984;2022-09-01T01:35:34;102187.44;;;15.25;78.12
65190;BME280;51777;53.570;9.984;2022-09-01T01:38:01;102193.91;;;15.21;78.38
65190;BME280;51777;53.570;9.984;2022-09-01T01:40:27;102187.72;;;15.12;78.58
65190;BME280;51777;53.570;9.984;2022-09-01T01:42:54;102200.66;;;15.14;78.52
65190;BME280;51777;53.570;9.984;2022-09-01T01:45:23;102201.47;;;15.14;79.02
65190;BME280;51777;53.570;9.984;2022-09-01T01:47:50;102196.38;;;15.13;78.81
65190;BME280;51777;53.570;9.984;2022-09-01T01:50:25;102202.44;;;15.13;79.14
65190;BME280;51777;53.570;9.984;2022-09-01T01:52:52;102203.50;;;15.11;79.14
65190;BME280;51777;53.570;9.984;2022-09-01T01:55:19;102193.75;;;15.13;78.96
65190;BME280;51777;53.570;9.984;2022-09-01T01:57:46;102190.34;;;15.12;78.90
65190;BME280;51777;53.570;9.984;2022-09-01T02:00:23;102193.75;;;15.13;79.13
65190;BME280;51777;53.570;9.984;2022-09-01T02:02:50;102189.28;;;15.05;79.42
65190;BME280;51777;53.570;9.984;2022-09-01T02:05:21;102194.75;;;15.02;79.67
65190;BME280;51777;53.570;9.984;2022-09-01T02:07:52;102203.53;;;15.01;79.86
65190;BME280;51777;53.570;9.984;2022-09-01T02:10:24;102196.66;;;15.00;79.87
65190;BME280;51777;53.570;9.984;2022-09-01T02:12:50;102202.97;;;14.97;80.03
65190;BME280;51777;53.570;9.984;2022-09-01T02:15:16;102204.22;;;14.93;80.70
65190;BME280;51777;53.570;9.984;2022-09-01T02:17:42;102191.19;;;14.84;81.17
65190;BME280;51777;53.570;9.984;2022-09-01T02:20:09;102202.56;;;14.83;81.55
65190;BME280;51777;53.570;9.984;2022-09-01T02:22:35;102197.22;;;14.84;81.17
65190;BME280;51777;53.570;9.984;2022-09-01T02:25:03;102204.22;;;14.84;81.32
65190;BME280;51777;53.570;9.984;2022-09-01T02:27:31;102206.81;;;14.84;81.32
65190;BME280;51777;53.570;9.984;2022-09-01T02:29:58;102197.66;;;14.80;81.54
65190;BME280;51777;53.570;9.984;2022-09-01T02:32:24;102195.03;;;14.80;81.60
65190;BME280;51777;53.570;9.984;2022-09-01T02:34:50;102193.41;;;14.79;82.02
65190;BME280;51777;53.570;9.984;2022-09-01T02:37:19;102192.16;;;14.73;82.05
65190;BME280;51777;53.570;9.984;2022-09-01T02:39:52;102193.78;;;14.74;82.05
65190;BME280;51777;53.570;9.984;2022-09-01T02:42:20;102191.63;;;14.69;82.75
65190;BME280;51777;53.570;9.984;2022-09-01T02:44:49;102197.63;;;14.70;82.46
65190;BME280;51777;53.570;9.984;2022-09-01T02:47:15;102190.66;;;14.71;82.75
65190;BME280;51777;53.570;9.984;2022-09-01T02:49:40;102190.09;;;14.67;82.92
65190;BME280;51777;53.570;9.984;2022-09-01T02:52:07;102193.66;;;14.66;83.35
65190;BME280;51777;53.570;9.984;2022-09-01T02:54:33;102186.69;;;14.66;82.93
65190;BME280;51777;53.570;9.984;2022-09-01T02:56:59;102187.66;;;14.65;83.06
65190;BME280;51777;53.570;9.984;2022-09-01T02:59:27;102187.91;;;14.62;83.81
65190;BME280;51777;53.570;9.984;2022-09-01T03:01:54;102196.94;;;14.58;84.10
65190;BME280;51777;53.570;9.984;2022-09-01T03:04:22;102195.16;;;14.59;83.62
65190;BME280;51777;53.570;9.984;2022-09-01T03:06:48;102184.06;;;14.57;83.89
65190;BME280;51777;53.570;9.984;2022-09-01T03:09:17;102187.78;;;14.54;84.08
65190;BME280;51777;53.570;9.984;2022-09-01T03:11:48;102195.72;;;14.53;83.94
65190;BME280;51777;53.570;9.984;2022-09-01T03:14:14;102191.47;;;14.52;84.04
65190;BME280;51777;53.570;9.984;2022-09-01T03:16:40;102191.72;;;14.49;83.81
65190;BME280;51777;53.570;9.984;2022-09-01T03:19:07;102199.00;;;14.45;84.56
65190;BME280;51777;53.570;9.984;2022-09-01T03:21:34;102192.13;;;14.44;84.73
65190;BME280;51777;53.570;9.984;2022-09-01T03:24:00;102190.47;;;14.43;85.03
65190;BME280;51777;53.570;9.984;2022-09-01T03:26:29;102188.97;;;14.40;85.22
65190;BME280;51777;53.570;9.984;2022-09-01T03:28:55;102191.00;;;14.37;86.05
65190;BME280;51777;53.570;9.984;2022-09-01T03:31:21;102189.91;;;14.39;85.40
65190;BME280;51777;53.570;9.984;2022-09-01T03:33:47;102188.25;;;14.38;85.25
65190;BME280;51777;53.570;9.984;2022-09-01T03:36:12;102183.31;;;14.35;85.21
65190;BME280;51777;53.570;9.984;2022-09-01T03:38:44;102182.09;;;14.30;84.99
65190;BME280;51777;53.570;9.984;2022-09-01T03:41:14;102182.06;;;14.20;84.76
65190;BME280;51777;53.570;9.984;2022-09-01T03:43:42;102187.81;;;14.14;85.99
65190;BME280;51777;53.570;9.984;2022-09-01T03:46:08;102191.47;;;14.11;85.53
65190;BME280;51777;53.570;9.984;2022-09-01T03:48:35;102186.69;;;14.07;86.13
65190;BME280;51777;53.570;9.984;2022-09-01T03:51:00;102185.88;;;14.06;86.29
65190;BME280;51777;53.570;9.984;2022-09-01T03:53:29;102189.56;;;14.04;86.14
65190;BME280;51777;53.570;9.984;2022-09-01T03:55:55;102182.81;;;14.01;86.46
65190;BME280;51777;53.570;9.984;2022-09-01T03:58:22;102189.13;;;13.99;86.86
65190;BME280;51777;53.570;9.984;2022-09-01T04:00:51;102183.63;;;13.92;87.83
65190;BME280;51777;53.570;9.984;2022-09-01T04:03:20;102183.63;;;13.92;87.77
65190;BME280;51777;53.570;9.984;2022-09-01T04:05:48;102187.19;;;13.91;87.75
65190;BME280;51777;53.570;9.984;2022-09-01T04:08:16;102173.63;;;13.88;89.13
65190;BME280;51777;53.570;9.984;2022-09-01T04:10:45;102182.00;;;13.91;89.20
65190;BME280;51777;53.570;9.984;2022-09-01T04:13:15;102182.69;;;13.93;89.10
65190;BME280;51777;53.570;9.984;2022-09-01T04:15:41;102184.19;;;13.96;89.14
65190;BME280;51777;53.570;9.984;2022-09-01T04:18:06;102182.53;;;13.95;89.28
65190;BME280;51777;53.570;9.984;2022-09-01T04:20:37;102186.25;;;13.92;89.85
65190;BME280;51777;53.570;9.984;2022-09-01T04:23:13;102181.84;;;13.93;89.73
65190;BME280;51777;53.570;9.984;2022-09-01T04:25:45;102175.69;;;13.94;89.64
65190;BME280;51777;53.570;9.984;2022-09-01T04:28:13;102177.06;;;13.98;89.47
65190;BME280;51777;53.570;9.984;2022-09-01T04:30:49;102178.72;;;13.99;89.01
65190;BME280;51777;53.570;9.984;2022-09-01T04:33:15;102181.19;;;14.00;89.51
65190;BME280;51777;53.570;9.984;2022-09-01T04:35:42;102183.78;;;14.00;89.34
65190;BME280;51777;53.570;9.984;2022-09-01T04:38:07;102179.81;;;13.96;89.77
65190;BME280;51777;53.570;9.984;2022-09-01T04:40:42;102184.75;;;13.99;89.44
65190;BME280;51777;53.570;9.984;2022-09-01T04:43:08;102182.81;;;14.01;89.71
65190;BME280;51777;53.570;9.984;2022-09-01T04:45:35;102189.94;;;13.99;89.52
65190;BME280;51777;53.570;9.984;2022-09-01T04:48:02;102183.09;;;13.98;89.11
65190;BME280;51777;53.570;9.984;2022-09-01T04:50:28;102188.28;;;13.98;90.01
65190;BME280;51777;53.570;9.984;2022-09-01T04:53:00;102186.38;;;14.00;89.85
65190;BME280;51777;53.570;9.984;2022-09-01T04:55:27;102184.22;;;14.05;89.36
65190;BME280;51777;53.570;9.984;2022-09-01T04:57:55;102191.06;;;14.06;89.56
65190;BME280;51777;53.570;9.984;2022-09-01T05:00:22;102189.00;;;14.10;89.46
65190;BME280;51777;53.570;9.984;2022-09-01T05:02:54;102192.31;;;14.12;89.58
65190;BME280;51777;53.570;9.984;2022-09-01T05:05:22;102190.78;;;14.09;89.30
65190;BME280;51777;53.570;9.984;2022-09-01T05:07:48;102197.38;;;14.14;89.60
65190;BME280;51777;53.570;9.984;2022-09-01T05:10:21;102195.22;;;14.19;89.08
65190;BME280;51777;53.570;9.984;2022-09-01T05:12:48;102196.59;;;14.23;88.90
65190;BME280;51777;53.570;9.984;2022-09-01T05:15:14;102194.66;;;14.25;88.89
65190;BME280;51777;53.570;9.984;2022-09-01T05:17:42;102194.41;;;14.28;88.94
65190;BME280;51777;53.570;9.984;2022-09-01T05:20:09;102198.94;;;14.35;88.37
65190;BME280;51777;53.570;9.984;2022-09-01T05:22:36;102195.22;;;14.38;88.14
65190;BME280;51777;53.570;9.984;2022-09-01T05:25:06;102198.56;;;14.40;88.30
65190;BME280;51777;53.570;9.984;2022-09-01T05:27:43;102194.03;;;14.42;88.59
65190;BME280;51777;53.570;9.984;2022-09-01T05:30:15;102201.69;;;14.44;87.92
65190;BME280;51777;53.570;9.984;2022-09-01T05:32:43;102202.66;;;14.43;87.94
65190;BME280;51777;53.570;9.984;2022-09-01T05:35:13;102206.34;;;14.40;88.01
65190;BME280;51777;53.570;9.984;2022-09-01T05:37:38;102204.88;;;14.47;88.13
65190;BME280;51777;53.570;9.984;2022-09-01T05:40:07;102208.47;;;14.56;88.08
65190;BME280;51777;53.570;9.984;2022-09-01T05:42:42;102205.28;;;14.62;87.94
65190;BME280;51777;53.570;9.984;2022-09-01T05:45:08;102207.22;;;14.69;87.31
65190;BME280;51777;53.570;9.984;2022-09-01T05:47:38;102208.34;;;14.77;86.74
65190;BME280;51777;53.570;9.984;2022-09-01T05:50:04;102205.84;;;14.85;86.68
65190;BME280;51777;53.570;9.984;2022-09-01T05:52:32;102209.84;;;14.89;86.18
65190;BME280;51777;53.570;9.984;2022-09-01T05:54:58;102213.00;;;14.92;86.06
65190;BME280;51777;53.570;9.984;2022-09-01T05:57:25;102215.31;;;14.95;85.42
65190;BME280;51777;53.570;9.984;2022-09-01T05:59:50;102219.28;;;14.99;85.66
65190;BME280;51777;53.570;9.984;2022-09-01T06:02:19;102216.69;;;15.09;85.21
65190;BME280;51777;53.570;9.984;2022-09-01T06:04:45;102217.78;;;15.16;85.03
65190;BME280;51777;53.570;9.984;2022-09-01T06:07:12;102217.88;;;15.24;84.96
65190;BME280;51777;53.570;9.984;2022-09-01T06:09:47;102210.59;;;15.38;84.42
65190;BME280;51777;53.570;9.984;2022-09-01T06:12:14;102216.06;;;15.44;83.73
65190;BME280;51777;53.570;9.984;2022-09-01T06:14:46;102217.16;;;15.51;83.77
65190;BME280;51777;53.570;9.984;2022-09-01T06:17:12;102218.22;;;15.58;83.11
65190;BME280;51777;53.570;9.984;2022-09-01T06:19:41;102212.91;;;15.60;82.56
65190;BME280;51777;53.570;9.984;2022-09-01T06:22:07;102215.91;;;15.65;82.42
65190;BME280;51777;53.570;9.984;2022-09-01T06:24:35;102214.38;;;15.72;82.50
65190;BME280;51777;53.570;9.984;2022-09-01T06:27:01;102218.72;;;15.81;82.61
65190;BME280;51777;53.570;9.984;2022-09-01T06:29:26;102221.44;;;15.90;81.86
65190;BME280;51777;53.570;9.984;2022-09-01T06:31:53;102222.50;;;15.97;81.57
65190;BME280;51777;53.570;9.984;2022-09-01T06:34:19;102221.28;;;16.01;80.93
65190;BME280;51777;53.570;9.984;2022-09-01T06:36:46;102223.88;;;16.01;80.70
65190;BME280;51777;53.570;9.984;2022-09-01T06:39:13;102233.72;;;16.07;80.01
65190;BME280;51777;53.570;9.984;2022-09-01T06:41:45;102228.47;;;16.17;80.33
65190;BME280;51777;53.570;9.984;2022-09-01T06:44:12;102228.41;;;16.26;80.11
65190;BME280;51777;53.570;9.984;2022-09-01T06:46:38;102233.19;;;16.31;79.17
65190;BME280;51777;53.570;9.984;2022-09-01T06:49:04;102230.44;;;16.32;78.91
65190;BME280;51777;53.570;9.984;2022-09-01T06:51:29;102239.84;;;16.43;78.15
65190;BME280;51777;53.570;9.984;2022-09-01T06:53:56;102235.00;;;16.48;77.02
65190;BME280;51777;53.570;9.984;2022-09-01T06:56:28;102233.81;;;16.60;77.40
65190;BME280;51777;53.570;9.984;2022-09-01T06:58:59;102241.63;;;16.70;76.41
65190;BME280;51777;53.570;9.984;2022-09-01T07:01:26;102237.00;;;16.82;76.02
65190;BME280;51777;53.570;9.984;2022-09-01T07:03:54;102231.69;;;16.91;74.49
65190;BME280;51777;53.570;9.984;2022-09-01T07:06:22;102234.66;;;16.96;74.14
65190;BME280;51777;53.570;9.984;2022-09-01T07:08:56;102233.09;;;17.03;72.76
65190;BME280;51777;53.570;9.984;2022-09-01T07:11:31;102233.03;;;17.13;73.04
65190;BME280;51777;53.570;9.984;2022-09-01T07:13:58;102236.81;;;17.19;72.09
65190;BME280;51777;53.570;9.984;2022-09-01T07:16:27;102240.47;;;17.26;72.13
65190;BME280;51777;53.570;9.984;2022-09-01T07:18:55;102240.34;;;17.36;70.82
65190;BME280;51777;53.570;9.984;2022-09-01T07:21:25;102239.28;;;17.46;69.92
65190;BME280;51777;53.570;9.984;2022-09-01T07:23:51;102239.03;;;17.57;69.41
65190;BME280;51777;53.570;9.984;2022-09-01T07:26:17;102243.66;;;17.64;67.78
65190;BME280;51777;53.570;9.984;2022-09-01T07:28:48;102245.06;;;17.76;68.03
65190;BME280;51777;53.570;9.984;2022-09-01T07:31:26;102250.38;;;17.92;67.39
65190;BME280;51777;53.570;9.984;2022-09-01T07:33:56;102247.47;;;18.03;66.64
65190;BME280;51777;53.570;9.984;2022-09-01T07:36:23;102252.94;;;18.18;65.81
65190;BME280;51777;53.570;9.984;2022-09-01T07:38:49;102250.50;;;18.25;65.61
65190;BME280;51777;53.570;9.984;2022-09-01T07:41:22;102251.53;;;18.40;65.11
65190;BME280;51777;53.570;9.984;2022-09-01T07:43:48;102252.38;;;18.57;64.17
65190;BME280;51777;53.570;9.984;2022-09-01T07:46:24;102254.56;;;18.69;63.09
65190;BME280;51777;53.570;9.984;2022-09-01T07:48:52;102261.13;;;18.73;61.76
65190;BME280;51777;53.570;9.984;2022-09-01T07:51:20;102256.88;;;18.89;61.49
65190;BME280;51777;53.570;9.984;2022-09-01T07:53:47;102255.56;;;19.01;61.09
65190;BME280;51777;53.570;9.984;2022-09-01T07:56:21;102256.53;;;19.08;60.30
65190;BME280;51777;53.570;9.984;2022-09-01T07:58:48;102264.59;;;19.15;59.59
65190;BME280;51777;53.570;9.984;2022-09-01T08:01:18;102262.44;;;19.18;58.88
65190;BME280;51777;53.570;9.984;2022-09-01T08:03:46;102262.94;;;19.38;59.05
65190;BME280;51777;53.570;9.984;2022-09-01T08:06:15;102265.84;;;19.51;58.37
65190;BME280;51777;53.570;9.984;2022-09-01T08:08:45;102262.91;;;19.62;58.20
65190;BME280;51777;53.570;9.984;2022-09-01T08:11:16;102267.63;;;19.75;55.28
65190;BME280;51777;53.570;9.984;2022-09-01T08:13:42;102264.94;;;19.91;54.49
65190;BME280;51777;53.570;9.984;2022-09-01T08:16:08;102276.06;;;20.10;54.02
65190;BME280;51777;53.570;9.984;2022-09-01T08:18:34;102267.22;;;20.34;52.97
65190;BME280;51777;53.570;9.984;2022-09-01T08:21:05;102268.84;;;20.43;51.99
65190;BME280;51777;53.570;9.984;2022-09-01T08:23:31;102276.53;;;20.52;51.88
65190;BME280;51777;53.570;9.984;2022-09-01T08:25:56;102278.28;;;20.83;50.82
65190;BME280;51777;53.570;9.984;2022-09-01T08:28:21;102274.13;;;21.11;50.87
65190;BME280;51777;53.570;9.984;2022-09-01T08:30:47;102270.94;;;21.39;49.46
65190;BME280;51777;53.570;9.984;2022-09-01T08:33:13;102279.66;;;21.54;47.44
65190;BME280;51777;53.570;9.984;2022-09-01T08:35:40;102274.44;;;21.84;45.14
65190;BME280;51777;53.570;9.984;2022-09-01T08:38:08;102279.28;;;22.67;41.93
65190;BME280;51777;53.570;9.984;2022-09-01T08:40:33;102278.63;;;23.92;39.14
65190;BME280;51777;53.570;9.984;2022-09-01T08:46:16;102286.69;;;26.55;34.17
65190;BME280;51777;53.570;9.984;2022-09-01T08:48:57;102287.84;;;27.40;33.19
65190;BME280;51777;53.570;9.984;2022-09-01T08:51:48;102293.66;;;28.22;32.89
65190;BME280;51777;53.570;9.984;2022-09-01T08:56:53;102296.81;;;29.49;30.04
65190;BME280;51777;53.570;9.984;2022-09-01T08:59:20;102299.66;;;30.23;29.63
65190;BME280;51777;53.570;9.984;2022-09-01T09:02:04;102295.56;;;30.78;26.88
65190;BME280;51777;53.570;9.984;2022-09-01T09:10:24;102292.50;;;31.41;25.19
65190;BME280;51777;53.570;9.984;2022-09-01T09:15:51;102298.00;;;32.49;23.06
65190;BME280;51777;53.570;9.984;2022-09-01T09:18:34;102295.84;;;32.19;24.52
65190;BME280;51777;53.570;9.984;2022-09-01T09:21:26;102290.91;;;32.33;23.37
65190;BME280;51777;53.570;9.984;2022-09-01T09:24:04;102286.06;;;32.62;22.16
65190;BME280;51777;53.570;9.984;2022-09-01T09:26:31;102286.03;;;32.57;23.40
65190;BME280;51777;53.570;9.984;2022-09-01T09:28:57;102284.38;;;32.83;23.70
65190;BME280;51777;53.570;9.984;2022-09-01T09:31:26;102290.19;;;33.07;21.66
65190;BME280;51777;53.570;9.984;2022-09-01T09:33:52;102293.69;;;32.43;21.50
65190;BME280;51777;53.570;9.984;2022-09-01T09:36:20;102286.72;;;31.71;23.21
65190;BME280;51777;53.570;9.984;2022-09-01T09:39:03;102285.31;;;32.66;21.29
65190;BME280;51777;53.570;9.984;2022-09-01T09:41:28;102280.47;;;32.63;21.11
65190;BME280;51777;53.570;9.984;2022-09-01T09:43:57;102287.56;;;32.80;20.26
65190;BME280;51777;53.570;9.984;2022-09-01T09:46:25;102289.50;;;32.84;21.23
65190;BME280;51777;53.570;9.984;2022-09-01T09:51:37;102282.06;;;33.39;21.14
65190;BME280;51777;53.570;9.984;2022-09-01T09:54:13;102276.25;;;33.57;21.22
65190;BME280;51777;53.570;9.984;2022-09-01T09:56:40;102278.63;;;33.48;21.67
65190;BME280;51777;53.570;9.984;2022-09-01T09:59:26;102271.88;;;32.93;22.45
65190;BME280;51777;53.570;9.984;2022-09-01T10:01:57;102262.16;;;32.82;23.34
65190;BME280;51777;53.570;9.984;2022-09-01T10:04:37;102261.09;;;34.03;22.38
65190;BME280;51777;53.570;9.984;2022-09-01T10:09:56;102261.75;;;33.53;22.37
65190;BME280;51777;53.570;9.984;2022-09-01T10:12:23;102249.16;;;33.01;22.10
65190;BME280;51777;53.570;9.984;2022-09-01T10:14:57;102253.38;;;32.60;22.33
65190;BME280;51777;53.570;9.984;2022-09-01T10:17:41;102242.44;;;32.29;22.53
65190;BME280;51777;53.570;9.984;2022-09-01T10:20:12;102237.50;;;32.21;22.65
65190;BME280;51777;53.570;9.984;2022-09-01T10:22:39;102240.41;;;31.66;23.14
65190;BME280;51777;53.570;9.984;2022-09-01T10:25:06;102232.38;;;31.05;24.63
65190;BME280;51777;53.570;9.984;2022-09-01T10:27:39;102236.91;;;32.14;22.80
65190;BME280;51777;53.570;9.984;2022-09-01T10:30:10;102233.03;;;30.95;23.49
65190;BME280;51777;53.570;9.984;2022-09-01T10:32:45;102229.09;;;29.62;24.75
65190;BME280;51777;53.570;9.984;2022-09-01T10:35:15;102231.56;;;31.05;24.28
65190;BME280;51777;53.570;9.984;2022-09-01T10:37:45;102224.47;;;30.26;23.49
65190;BME280;51777;53.570;9.984;2022-09-01T10:40:33;102225.78;;;29.43;24.25
65190;BME280;51777;53.570;9.984;2022-09-01T10:43:23;102224.66;;;31.47;23.15
65190;BME280;51777;53.570;9.984;2022-09-01T10:45:50;102235.84;;;32.42;21.97
65190;BME280;51777;53.570;9.984;2022-09-01T10:48:25;102232.91;;;32.81;21.48
65190;BME280;51777;53.570;9.984;2022-09-01T10:53:38;102221.88;;;30.31;24.06
65190;BME280;51777;53.570;9.984;2022-09-01T10:56:15;102231.47;;;29.12;24.58
65190;BME280;51777;53.570;9.984;2022-09-01T10:59:27;102220.75;;;28.12;25.61
65190;BME280;51777;53.570;9.984;2022-09-01T11:11:59;102201.41;;;25.68;29.76
65190;BME280;51777;53.570;9.984;2022-09-01T11:14:29;102198.88;;;25.35;30.68
65190;BME280;51777;53.570;9.984;2022-09-01T11:17:25;102205.94;;;26.44;29.31
65190;BME280;51777;53.570;9.984;2022-09-01T11:19:55;102197.66;;;27.09;28.46
65190;BME280;51777;53.570;9.984;2022-09-01T11:30:21;102208.22;;;30.45;24.89
65190;BME280;51777;53.570;9.984;2022-09-01T11:32:51;102219.72;;;33.16;22.80
65190;BME280;51777;53.570;9.984;2022-09-01T11:35:22;102217.47;;;35.23;20.76
65190;BME280;51777;53.570;9.984;2022-09-01T11:37:51;102219.50;;;34.21;20.57
65190;BME280;51777;53.570;9.984;2022-09-01T11:40:26;102224.66;;;35.43;20.19
65190;BME280;51777;53.570;9.984;2022-09-01T11:42:53;102232.31;;;36.49;18.59
65190;BME280;51777;53.570;9.984;2022-09-01T11:45:30;102222.56;;;37.48;17.07
65190;BME280;51777;53.570;9.984;2022-09-01T11:48:02;102219.41;;;36.11;17.96
65190;BME280;51777;53.570;9.984;2022-09-01T11:50:33;102206.66;;;35.88;17.92
65190;BME280;51777;53.570;9.984;2022-09-01T11:53:02;102216.59;;;37.09;17.68
65190;BME280;51777;53.570;9.984;2022-09-01T11:55:32;102213.53;;;38.42;16.61
65190;BME280;51777;53.570;9.984;2022-09-01T11:57:58;102214.59;;;38.87;16.17
65190;BME280;51777;53.570;9.984;2022-09-01T12:00:35;102200.44;;;36.22;17.96
65190;BME280;51777;53.570;9.984;2022-09-01T12:03:30;102186.84;;;31.61;22.17
65190;BME280;51777;53.570;9.984;2022-09-01T12:06:06;102178.78;;;30.39;23.93
65190;BME280;51777;53.570;9.984;2022-09-01T12:08:35;102184.19;;;29.54;25.53
65190;BME280;51777;53.570;9.984;2022-09-01T12:11:10;102179.13;;;28.47;27.14
65190;BME280;51777;53.570;9.984;2022-09-01T12:13:38;102173.38;;;27.60;28.51
65190;BME280;51777;53.570;9.984;2022-09-01T12:16:09;102181.25;;;28.92;27.89
65190;BME280;51777;53.570;9.984;2022-09-01T12:18:43;102195.38;;;32.38;23.49
65190;BME280;51777;53.570;9.984;2022-09-01T12:21:34;102174.84;;;34.71;19.96
65190;BME280;51777;53.570;9.984;2022-09-01T12:24:20;102195.34;;;37.02;18.00
65190;BME280;51777;53.570;9.984;2022-09-01T12:26:48;102198.31;;;37.81;16.46
65190;BME280;51777;53.570;9.984;2022-09-01T12:29:15;102185.41;;;35.32;18.90
65190;BME280;51777;53.570;9.984;2022-09-01T12:31:43;102194.44;;;36.88;17.74
65190;BME280;51777;53.570;9.984;2022-09-01T12:42:20;102196.34;;;40.63;14.52
65190;BME280;51777;53.570;9.984;2022-09-01T12:53:01;102174.69;;;38.38;15.42
65190;BME280;51777;53.570;9.984;2022-09-01T12:55:33;102179.53;;;38.08;15.35
65190;BME280;51777;53.570;9.984;2022-09-01T12:58:02;102181.19;;;39.33;14.79
65190;BME280;51777;53.570;9.984;2022-09-01T13:00:31;102190.94;;;40.63;13.46
65190;BME280;51777;53.570;9.984;2022-09-01T13:03:15;102188.56;;;42.35;12.46
65190;BME280;51777;53.570;9.984;2022-09-01T13:05:48;102185.81;;;41.53;12.52
65190;BME280;51777;53.570;9.984;2022-09-01T13:08:18;102193.59;;;42.83;12.28
65190;BME280;51777;53.570;9.984;2022-09-01T13:10:44;102183.00;;;42.61;11.59
65190;BME280;51777;53.570;9.984;2022-09-01T13:13:11;102187.38;;;44.11;11.61
65190;BME280;51777;53.570;9.984;2022-09-01T13:15:43;102164.47;;;39.17;14.28
65190;BME280;51777;53.570;9.984;2022-09-01T13:18:13;102160.19;;;38.01;15.49
65190;BME280;51777;53.570;9.984;2022-09-01T13:20:39;102162.78;;;38.94;15.10
65190;BME280;51777;53.570;9.984;2022-09-01T13:23:06;102165.94;;;37.62;15.95
65190;BME280;51777;53.570;9.984;2022-09-01T13:25:32;102152.25;;;35.47;17.45
65190;BME280;51777;53.570;9.984;2022-09-01T13:27:58;102142.13;;;32.10;21.03
65190;BME280;51777;53.570;9.984;2022-09-01T13:30:28;102135.44;;;31.10;22.93
65190;BME280;51777;53.570;9.984;2022-09-01T13:32:54;102125.41;;;29.49;25.13
65190;BME280;51777;53.570;9.984;2022-09-01T13:35:21;102117.19;;;28.52;26.95
65190;BME280;51777;53.570;9.984;2022-09-01T13:37:48;102124.03;;;28.59;26.88
65190;BME280;51777;53.570;9.984;2022-09-01T13:40:15;102119.38;;;29.53;26.07
65190;BME280;51777;53.570;9.984;2022-09-01T13:42:49;102131.13;;;32.38;22.77
65190;BME280;51777;53.570;9.984;2022-09-01T13:45:17;102149.06;;;36.47;18.44
65190;BME280;51777;53.570;9.984;2022-09-01T13:47:45;102152.09;;;38.75;16.46
65190;BME280;51777;53.570;9.984;2022-09-01T13:50:13;102155.94;;;39.24;15.91
65190;BME280;51777;53.570;9.984;2022-09-01T13:52:43;102144.06;;;36.59;17.54
65190;BME280;51777;53.570;9.984;2022-09-01T13:55:12;102128.94;;;33.40;20.76
65190;BME280;51777;53.570;9.984;2022-09-01T13:57:38;102124.69;;;32.02;22.54
65190;BME280;51777;53.570;9.984;2022-09-01T14:00:06;102124.03;;;31.63;22.72
65190;BME280;51777;53.570;9.984;2022-09-01T14:02:35;102115.63;;;29.66;25.14
65190;BME280;51777;53.570;9.984;2022-09-01T14:05:01;102119.88;;;28.63;26.46